San Quentin, CA (94964)

5:15 PM PDT on July 31, 2015 (GMT -0700)
Tiburon | | Change Station
CLOSE
Current Station
Personal Weather Station
Location: Belvedere Tiburon, CA
Elevation: 102 ft
Nearby Weather Stations

Elev 102 ft 37.92 °N, 122.48 °W | Updated 37 seconds ago

Partly Cloudy
Partly Cloudy
69.5 °F
Feels Like 69.5 °F
N
3.0
Wind Variable Wind from SW

Today
High -- | Low -- °F
--% Chance of Precip.
Yesterday
High -- | Low -- °F
Precip. -- in
6:12 AM 8:20 PM
Full, 100% visible
Pressure 29.99 in
Visibility 10.0 miles
Clouds Scattered Clouds 1000 ft
Scattered Clouds 12000 ft
Mostly Cloudy 18000 ft
Dew Point 60 °F
Humidity 73%
Rainfall 0.00 in
Snow Depth Not available.
UV 3 out of 12
Pollen 3.70 out of 12
Air Quality Not available.
Flu Activity Not available.
METAR KOAK 312353Z 28015KT 10SM SCT010 SCT120 BKN180 21/15 A2998 RMK AO2 SLP153 T02110150 10222 20189 56012

More Conditions Fewer Conditions

Pressure 29.99 in
Visibility 10.0 miles
Clouds Scattered Clouds 1000 ft
Scattered Clouds 12000 ft
Mostly Cloudy 18000 ft
Dew Point 60 °F
Humidity 73%
Rainfall 0.00 in
Snow Depth Not available.
UV 3 out of 12
Pollen 3.70 out of 12
Air Quality Not available.
Flu Activity Not available.
METAR KOAK 312353Z 28015KT 10SM SCT010 SCT120 BKN180 21/15 A2998 RMK AO2 SLP153 T02110150 10222 20189 56012

More Conditions Fewer Conditions

10-Day Weather Forecast

×

Almanac

Astronomy

Jul. 31, 2015 Rise Set
Actual Time
Civil Twilight
Nautical Twilight
Astronomical Twilight
Moon
Length of Visible Light
Length of Day
Tomorrow will be .
, % of the Moon is Illuminated

Today's Extremes

State Highs State Lows

Community

WunderPhotos

Upload Photos

1,842,778 photos uploaded!

WunderBlogs® & News

Nearby

Air Quality

  Air Quality AQ Index Pollutant
Not available.

Snow Depth

Station Depth Elevation

Earthquake Activity

City Distance Mag. Time & Date
Minimum magnitude displayed is 2.5.

Coastal Water Temperatures

Place Temperature

Stations

Nearby Weather Stations

Station Location Temp. Windchill Dew Point Humidity Wind Precip. Elev Updated Type